createdAt,value
2018-10-06T00:03:06.492Z,17.3
2018-10-06T00:08:29.975Z,17.3
2018-10-06T00:14:00.287Z,17.2
2018-10-06T00:19:34.701Z,17.1
2018-10-06T00:25:03.848Z,17
2018-10-06T00:30:29.049Z,17
2018-10-06T00:36:03.232Z,16.9
2018-10-06T00:41:32.122Z,16.8
2018-10-06T00:47:01.562Z,16.7
2018-10-06T00:52:30.484Z,16.7
2018-10-06T00:57:55.601Z,16.6
2018-10-06T01:03:30.835Z,16.5
2018-10-06T01:08:54.875Z,16.5
2018-10-06T01:14:24.008Z,16.4
2018-10-06T01:19:54.192Z,16.3
2018-10-06T01:25:29.497Z,16.3
2018-10-06T01:30:58.370Z,16.2
2018-10-06T01:36:22.691Z,16.1
2018-10-06T01:41:51.532Z,16.1
2018-10-06T01:47:20.904Z,16
2018-10-06T01:52:55.016Z,15.9
2018-10-06T01:58:19.767Z,15.9
2018-10-06T02:03:50.096Z,15.8
2018-10-06T02:09:20.117Z,15.7
2018-10-06T02:14:50.386Z,15.7
2018-10-06T02:20:20.010Z,15.6
2018-10-06T02:25:49.245Z,15.6
2018-10-06T02:31:18.276Z,15.5
2018-10-06T02:36:47.082Z,15.4
2018-10-06T02:42:16.079Z,15.4
2018-10-06T02:47:46.332Z,15.3
2018-10-06T02:53:20.231Z,15.3
2018-10-06T02:58:44.069Z,15.2
2018-10-06T03:04:19.105Z,15.1
2018-10-06T03:09:44.116Z,15.1
2018-10-06T03:15:14.333Z,15
2018-10-06T03:20:43.072Z,15
2018-10-06T03:26:13.052Z,14.9
2018-10-06T03:31:43.043Z,14.9
2018-10-06T03:37:13.074Z,14.9
2018-10-06T03:42:47.960Z,14.8
2018-10-06T03:48:11.920Z,14.8
2018-10-06T03:53:41.875Z,14.7
2018-10-06T03:59:12.083Z,14.7
2018-10-06T04:04:46.058Z,14.6
2018-10-06T04:10:12.226Z,14.6
2018-10-06T04:15:39.669Z,14.6
2018-10-06T04:21:14.912Z,14.5
2018-10-06T04:26:38.912Z,14.5
2018-10-06T04:32:08.493Z,14.4
2018-10-06T04:37:42.426Z,14.4
2018-10-06T04:43:07.381Z,14.4
2018-10-06T04:48:36.522Z,14.3
2018-10-06T04:54:10.428Z,14.3
2018-10-06T04:59:35.043Z,14.2
2018-10-06T05:05:09.954Z,14.2
2018-10-06T05:10:34.830Z,14.2
2018-10-06T05:16:03.739Z,14.1
2018-10-06T05:21:38.643Z,14.1
2018-10-06T05:27:03.511Z,14.1
2018-10-06T05:32:32.406Z,14
2018-10-06T05:38:06.317Z,14
2018-10-06T05:43:30.174Z,14
2018-10-06T05:49:00.165Z,13.9
2018-10-06T05:54:29.916Z,13.9
2018-10-06T06:00:04.086Z,13.9
2018-10-06T06:05:28.636Z,13.9
2018-10-06T06:10:58.762Z,13.8
2018-10-06T06:16:27.365Z,13.8
2018-10-06T06:21:57.333Z,13.8
2018-10-06T06:27:26.317Z,13.7
2018-10-06T06:32:55.046Z,13.7
2018-10-06T06:38:23.974Z,13.7
2018-10-06T06:43:52.730Z,13.7
2018-10-06T06:49:21.444Z,13.7
2018-10-06T06:54:50.423Z,13.6
2018-10-06T07:00:25.146Z,13.6
2018-10-06T07:05:49.018Z,13.6
2018-10-06T07:11:17.789Z,13.6
2018-10-06T07:16:47.633Z,13.6
2018-10-06T07:27:47.547Z,13.5
2018-10-06T07:33:22.134Z,13.5
2018-10-06T07:38:51.077Z,13.5
2018-10-06T07:44:15.771Z,13.5
2018-10-06T07:49:45.627Z,13.5
2018-10-06T08:00:44.594Z,13.5
2018-10-06T08:06:13.100Z,13.5
2018-10-06T08:11:41.898Z,13.5
2018-10-06T08:17:10.987Z,13.5
2018-10-06T08:22:45.574Z,13.5
2018-10-06T08:28:09.487Z,13.5
2018-10-06T08:33:39.194Z,13.5
2018-10-06T08:44:37.858Z,13.5
2018-10-06T08:50:07.879Z,13.5
2018-10-06T08:55:36.486Z,13.5
2018-10-06T09:01:05.571Z,13.5
2018-10-06T09:06:35.136Z,13.5
2018-10-06T09:12:04.989Z,13.5
2018-10-06T09:17:39.172Z,13.5
2018-10-06T09:23:04.191Z,13.5
2018-10-06T09:28:32.567Z,13.6
2018-10-06T09:34:07.369Z,13.6
2018-10-06T09:39:32.167Z,13.6
2018-10-06T09:45:01.000Z,13.6
2018-10-06T09:50:35.858Z,13.6
2018-10-06T09:56:00.708Z,13.6
2018-10-06T10:01:30.805Z,13.6
2018-10-06T10:06:59.353Z,13.6
2018-10-06T10:12:28.522Z,13.6
2018-10-06T10:17:57.114Z,13.6
2018-10-06T10:23:26.987Z,13.7
2018-10-06T10:28:56.041Z,13.7
2018-10-06T10:34:24.648Z,13.7
2018-10-06T10:34:32.591Z,13.9
2018-10-06T10:40:02.579Z,14.6
2018-10-06T10:45:31.479Z,14.8
2018-10-06T10:51:00.387Z,14.5
2018-10-06T10:56:34.267Z,14.3
2018-10-06T11:01:58.635Z,14.2
2018-10-06T11:07:28.113Z,14.1
2018-10-06T11:12:58.116Z,14.1
2018-10-06T11:18:27.945Z,14
2018-10-06T11:23:56.878Z,14
2018-10-06T11:29:31.394Z,13.9
2018-10-06T11:34:55.229Z,13.9
2018-10-06T11:40:24.038Z,13.8
2018-10-06T11:45:52.887Z,13.8
2018-10-06T11:51:22.715Z,14
2018-10-06T11:56:57.880Z,14.1
2018-10-06T12:02:21.471Z,14.2
2018-10-06T12:07:50.306Z,14.3
2018-10-06T12:13:20.214Z,14.3
2018-10-06T12:18:55.077Z,14.3
2018-10-06T12:24:19.964Z,14.4
2018-10-06T12:29:49.849Z,14.5
2018-10-06T12:35:18.854Z,14.5
2018-10-06T12:40:47.676Z,14.5
2018-10-06T12:46:17.588Z,14.6
2018-10-06T12:51:52.474Z,14.7
2018-10-06T12:57:17.344Z,14.7
2018-10-06T13:02:47.298Z,14.6
2018-10-06T13:08:16.191Z,14.6
2018-10-06T13:13:46.254Z,14.5
2018-10-06T13:19:15.975Z,14.6
2018-10-06T13:24:50.896Z,14.7
2018-10-06T13:30:14.968Z,15
2018-10-06T13:35:43.875Z,15.1
2018-10-06T13:41:12.777Z,15.1
2018-10-06T13:46:42.721Z,15
2018-10-06T13:52:12.149Z,14.9
2018-10-06T13:57:45.585Z,14.9
2018-10-06T14:03:10.509Z,15
2018-10-06T14:08:40.520Z,15.1
2018-10-06T14:14:10.724Z,15.3
2018-10-06T14:19:40.406Z,15.3
2018-10-06T14:25:09.440Z,15.2
2018-10-06T14:30:43.338Z,15.1
2018-10-06T14:36:07.254Z,15.1
2018-10-06T14:41:42.454Z,15.1
2018-10-06T14:47:11.183Z,15.2
2018-10-06T14:52:35.118Z,15.1
2018-10-06T14:58:05.069Z,15
2018-10-06T15:03:38.976Z,14.9
2018-10-06T15:09:03.116Z,14.8
2018-10-06T15:14:31.795Z,14.7
2018-10-06T15:20:05.647Z,14.6
2018-10-06T15:30:59.540Z,14.4
2018-10-06T15:36:29.332Z,14.3
2018-10-06T15:41:58.456Z,14.2
2018-10-06T15:47:33.125Z,14.2
2018-10-06T15:52:57.837Z,14.1
2018-10-06T15:58:26.677Z,14
2018-10-06T16:03:55.478Z,14
2018-10-06T16:09:24.585Z,13.9
2018-10-06T16:14:53.188Z,13.9
2018-10-06T16:20:21.941Z,13.8
2018-10-06T16:25:57.055Z,13.8
2018-10-06T16:31:21.569Z,13.7
2018-10-06T16:36:50.636Z,13.7
2018-10-06T16:42:20.294Z,13.6
2018-10-06T16:47:55.077Z,13.6
2018-10-06T16:53:18.770Z,13.6
2018-10-06T16:58:48.562Z,13.6
2018-10-06T17:04:18.368Z,13.5
2018-10-06T17:09:47.430Z,13.5
2018-10-06T17:15:16.969Z,13.5
2018-10-06T17:20:51.675Z,13.4
2018-10-06T17:26:21.417Z,13.4
2018-10-06T17:31:45.178Z,13.4
2018-10-06T17:37:14.148Z,13.3
2018-10-06T17:42:43.009Z,13.3
2018-10-06T17:48:12.488Z,13.3
2018-10-06T17:53:41.184Z,13.2
2018-10-06T17:59:10.213Z,13.2
2018-10-06T18:04:39.702Z,13.2
2018-10-06T18:10:08.681Z,13.2
2018-10-06T18:15:38.459Z,13.2
2018-10-06T18:21:12.437Z,13.1
2018-10-06T18:26:36.747Z,13.1
2018-10-06T18:32:06.116Z,13.1
2018-10-06T18:37:35.358Z,13.1
2018-10-06T18:43:04.124Z,13.1
2018-10-06T18:48:33.567Z,13.1
2018-10-06T18:54:03.303Z,13.1
2018-10-06T18:59:32.062Z,13.1
2018-10-06T19:05:06.789Z,13.1
2018-10-06T19:10:31.933Z,13
2018-10-06T19:16:00.235Z,13
2018-10-06T19:21:34.004Z,13
2018-10-06T19:26:58.899Z,12.9
2018-10-06T19:32:28.360Z,12.9
2018-10-06T19:37:57.063Z,12.8
2018-10-06T19:43:25.803Z,12.8
2018-10-06T19:48:55.574Z,12.8
2018-10-06T19:54:29.518Z,12.9
2018-10-06T19:59:53.191Z,12.9
2018-10-06T20:05:26.632Z,12.9
2018-10-06T20:10:55.382Z,12.9
2018-10-06T20:16:19.047Z,12.9
2018-10-06T20:21:47.782Z,12.8
2018-10-06T20:27:17.733Z,12.7
2018-10-06T20:32:52.233Z,12.6
2018-10-06T20:38:21.987Z,12.4
2018-10-06T20:43:46.546Z,12.3
2018-10-06T20:49:16.284Z,12.2
2018-10-06T20:54:45.788Z,12.1
2018-10-06T21:00:19.449Z,12.1
2018-10-06T21:05:49.054Z,12
2018-10-06T21:11:13.648Z,11.9
2018-10-06T21:16:42.254Z,11.8
2018-10-06T21:22:17.342Z,11.7
2018-10-06T21:27:41.470Z,11.6
2018-10-06T21:33:11.311Z,11.5
2018-10-06T21:38:40.688Z,11.4
2018-10-06T21:44:15.251Z,11.2
2018-10-06T21:49:39.988Z,11.1
2018-10-06T21:55:14.422Z,11
2018-10-06T22:00:37.938Z,10.9
2018-10-06T22:06:06.769Z,10.8
2018-10-06T22:11:35.007Z,10.6
2018-10-06T22:22:38.134Z,10.4
2018-10-06T22:28:02.526Z,10.1
2018-10-06T22:33:32.000Z,9.7
2018-10-06T22:39:00.423Z,9.5
2018-10-06T22:44:28.813Z,9.2
2018-10-06T22:50:02.288Z,8.8
2018-10-06T22:55:26.785Z,8.6
2018-10-06T23:00:55.751Z,8.5
2018-10-06T23:06:24.028Z,8.3
2018-10-06T23:11:53.685Z,8.2
2018-10-06T23:17:21.584Z,8.2
2018-10-06T23:22:49.892Z,8.2
2018-10-06T23:28:24.185Z,8.1
2018-10-06T23:33:48.512Z,8
2018-10-06T23:39:16.717Z,8
2018-10-06T23:44:44.950Z,7.9
2018-10-06T23:50:18.219Z,7.9
2018-10-06T23:55:47.709Z,7.8
